Time;durP1;ratioP1;P1;durP2;ratioP2;P2;SDS_P1;SDS_P2;PMS_P1;PMS_P2;Temp;Humidity;BMP_temperature;BMP_pressure;BME280_temperature;BME280_humidity;BME280_pressure;Samples;Min_cycle;Max_cycle;Signal;HPM_P1;HPM_P2
2021/01/02 00:02:03;;;;;;;7.80;4.13;;;1.10;99.90;;;;;;5070506;28;20056;-77
2021/01/02 00:04:46;;;;;;;9.68;4.63;;;1.00;99.90;;;;;;5069496;28;20033;-77
2021/01/02 00:07:42;;;;;;;10.32;5.13;;;1.00;99.90;;;;;;5068314;28;20078;-77
2021/01/02 00:10:11;;;;;;;9.23;4.63;;;0.90;99.90;;;;;;5064167;28;20036;-77
2021/01/02 00:12:45;;;;;;;8.70;5.22;;;0.90;99.90;;;;;;5064469;28;20056;-77
2021/01/02 00:15:22;;;;;;;11.88;6.40;;;0.90;99.90;;;;;;5056309;28;20491;-77
2021/01/02 00:18:10;;;;;;;10.27;5.22;;;0.90;99.90;;;;;;5070867;28;20024;-77
2021/01/02 00:21:07;;;;;;;10.15;5.30;;;0.90;99.90;;;;;;5056741;28;20067;-77
2021/01/02 00:24:01;;;;;;;10.75;5.47;;;0.90;99.90;;;;;;5060101;28;20457;-77
2021/01/02 00:26:48;;;;;;;14.63;5.45;;;0.80;99.90;;;;;;5064535;28;20048;-77
2021/01/02 00:29:22;;;;;;;14.23;7.00;;;0.80;99.90;;;;;;5068701;28;20098;-77
2021/01/02 00:32:17;;;;;;;15.70;7.28;;;0.80;99.90;;;;;;5069093;28;20522;-77
2021/01/02 00:35:08;;;;;;;15.68;7.28;;;0.80;99.90;;;;;;5066444;28;20077;-77
2021/01/02 00:37:42;;;;;;;17.52;8.02;;;0.80;99.90;;;;;;5068796;28;20411;-77
2021/01/02 00:40:12;;;;;;;16.38;7.70;;;0.70;99.90;;;;;;5070197;28;20094;-77
2021/01/02 00:42:41;;;;;;;13.60;7.45;;;0.70;99.90;;;;;;5070277;28;20043;-77
2021/01/02 00:45:17;;;;;;;14.23;7.95;;;0.70;99.90;;;;;;5064949;28;20039;-77
2021/01/02 00:47:43;;;;;;;18.10;8.32;;;0.70;99.90;;;;;;5068526;28;20028;-77
2021/01/02 00:50:14;;;;;;;14.82;7.35;;;0.70;99.90;;;;;;5068853;28;20029;-77
2021/01/02 00:52:43;;;;;;;22.35;7.68;;;0.70;99.90;;;;;;5074143;28;20478;-77
2021/01/02 00:55:18;;;;;;;11.68;6.60;;;0.60;99.90;;;;;;5070186;28;20028;-77
2021/01/02 00:58:11;;;;;;;11.80;7.03;;;0.60;99.90;;;;;;5074043;28;20028;-78
2021/01/02 01:00:43;;;;;;;11.70;6.03;;;0.60;99.90;;;;;;5056612;28;20029;-77
2021/01/02 01:03:37;;;;;;;15.35;6.18;;;0.60;99.90;;;;;;5072519;28;20041;-77
2021/01/02 01:06:04;;;;;;;8.43;6.03;;;0.60;99.90;;;;;;5060494;28;20028;-77
2021/01/02 01:08:32;;;;;;;10.43;5.97;;;0.60;99.90;;;;;;5065732;28;20035;-77
2021/01/02 01:11:02;;;;;;;11.55;6.72;;;0.60;99.90;;;;;;5053710;28;20041;-77
2021/01/02 01:13:28;;;;;;;13.13;6.93;;;0.60;99.90;;;;;;5055979;28;20541;-77
2021/01/02 01:15:56;;;;;;;17.33;6.68;;;0.50;99.90;;;;;;5071012;28;20024;-77
2021/01/02 01:18:30;;;;;;;15.18;7.07;;;0.40;99.90;;;;;;5090220;28;20155;-77
2021/01/02 01:20:58;;;;;;;9.80;6.30;;;0.30;99.90;;;;;;5052138;28;20075;-77
2021/01/02 01:23:41;;;;;;;10.00;6.78;;;0.20;99.90;;;;;;5057347;28;20384;-77
2021/01/02 01:26:38;;;;;;;16.45;6.55;;;0.20;99.90;;;;;;5072614;28;20589;-77
2021/01/02 01:29:04;;;;;;;12.02;6.72;;;0.20;99.90;;;;;;5047765;28;20033;-76
2021/01/02 01:31:45;;;;;;;11.23;7.32;;;0.20;99.90;;;;;;5071780;28;20652;-77
2021/01/02 01:34:20;;;;;;;11.50;6.50;;;0.30;99.90;;;;;;5071661;28;20094;-76
2021/01/02 01:36:47;;;;;;;10.20;6.05;;;0.20;99.90;;;;;;5069522;28;20039;-77
2021/01/02 01:39:14;;;;;;;14.13;7.30;;;0.10;99.90;;;;;;5063557;28;20483;-76
2021/01/02 01:41:43;;;;;;;14.85;6.38;;;0.10;99.90;;;;;;5053586;28;20033;-77
2021/01/02 01:44:09;;;;;;;10.35;6.03;;;0.10;99.90;;;;;;5063349;28;20031;-77
2021/01/02 01:46:42;;;;;;;10.93;6.22;;;0.10;99.90;;;;;;5069648;28;20110;-77
2021/01/02 01:49:09;;;;;;;12.35;7.43;;;0.10;99.90;;;;;;5066463;28;20115;-76
2021/01/02 01:51:56;;;;;;;10.45;6.20;;;0.10;99.90;;;;;;5052877;28;20079;-76
2021/01/02 01:54:47;;;;;;;12.95;7.07;;;0.10;99.90;;;;;;5066245;28;20025;-76
2021/01/02 01:57:21;;;;;;;12.77;6.35;;;0.10;99.90;;;;;;5068878;28;20115;-77
2021/01/02 01:59:55;;;;;;;13.55;7.43;;;0.10;99.90;;;;;;5066452;28;20028;-77
2021/01/02 02:02:29;;;;;;;11.48;6.75;;;0.20;99.90;;;;;;5069277;28;20067;-77
2021/01/02 02:05:05;;;;;;;12.20;6.35;;;0.10;99.90;;;;;;5063333;28;20025;-76
2021/01/02 02:07:41;;;;;;;11.20;6.95;;;0.20;99.90;;;;;;5071467;28;20032;-76
2021/01/02 02:10:08;;;;;;;14.20;6.93;;;0.20;99.90;;;;;;5080055;28;20036;-77
2021/01/02 02:12:35;;;;;;;9.80;6.05;;;0.20;99.90;;;;;;5072261;28;20071;-77
2021/01/02 02:15:01;;;;;;;9.73;6.30;;;0.30;99.90;;;;;;5056464;28;20029;-77
2021/01/02 02:17:35;;;;;;;12.00;6.20;;;0.30;99.90;;;;;;5061957;28;20036;-77
2021/01/02 02:20:04;;;;;;;11.77;6.65;;;0.30;99.90;;;;;;5055957;28;20036;-77
2021/01/02 02:22:34;;;;;;;9.40;6.13;;;0.20;99.90;;;;;;5071974;28;20024;-77
2021/01/02 02:25:03;;;;;;;12.70;7.28;;;0.30;99.90;;;;;;5051487;28;20045;-76
2021/01/02 02:27:30;;;;;;;10.25;5.45;;;0.30;99.90;;;;;;5054259;28;20037;-77
2021/01/02 02:30:06;;;;;;;15.70;6.53;;;0.30;99.90;;;;;;5070298;28;20531;-76
2021/01/02 02:32:35;;;;;;;11.10;6.80;;;0.30;99.90;;;;;;5070520;28;20077;-76
2021/01/02 02:35:07;;;;;;;14.02;6.70;;;0.30;99.90;;;;;;5068755;28;20522;-76
2021/01/02 02:37:36;;;;;;;11.13;6.57;;;0.30;99.90;;;;;;5065757;28;20028;-76
2021/01/02 02:40:05;;;;;;;13.02;6.60;;;0.40;99.90;;;;;;5080086;28;20028;-76
2021/01/02 02:42:37;;;;;;;10.82;6.28;;;0.40;99.90;;;;;;5063765;28;20029;-76
2021/01/02 02:45:08;;;;;;;10.68;6.30;;;0.40;99.90;;;;;;5051737;28;20044;-76
2021/01/02 02:47:38;;;;;;;11.95;6.53;;;0.30;99.90;;;;;;5065146;28;20062;-76
2021/01/02 02:50:05;;;;;;;13.18;7.50;;;0.40;99.90;;;;;;5069446;28;20041;-76
2021/01/02 02:52:39;;;;;;;11.60;6.63;;;0.40;99.90;;;;;;5051388;28;20090;-76
2021/01/02 02:55:05;;;;;;;11.52;5.78;;;0.30;99.90;;;;;;5053627;28;20143;-76
2021/01/02 02:57:32;;;;;;;12.52;6.82;;;0.30;99.90;;;;;;5063794;28;20029;-76
2021/01/02 02:59:58;;;;;;;9.75;5.55;;;0.40;99.90;;;;;;5052923;28;20029;-77
2021/01/02 03:02:26;;;;;;;11.43;6.55;;;0.40;99.90;;;;;;5069321;28;20089;-76
2021/01/02 03:04:53;;;;;;;10.95;6.82;;;0.40;99.90;;;;;;5067110;28;20024;-76
2021/01/02 03:07:18;;;;;;;9.00;5.65;;;0.40;99.90;;;;;;5057152;28;20514;-76
2021/01/02 03:09:45;;;;;;;11.85;6.50;;;0.50;99.90;;;;;;5060547;28;20037;-77
2021/01/02 03:12:10;;;;;;;12.23;7.18;;;0.50;99.90;;;;;;5051049;28;20029;-76
2021/01/02 03:14:36;;;;;;;11.98;6.55;;;0.50;99.90;;;;;;5064727;28;20123;-76
2021/01/02 03:17:02;;;;;;;12.77;6.68;;;0.60;99.90;;;;;;5067220;28;20028;-76
2021/01/02 03:19:29;;;;;;;12.52;7.13;;;0.60;99.90;;;;;;5068052;28;20024;-76
2021/01/02 03:21:56;;;;;;;12.98;6.70;;;0.60;99.90;;;;;;5069792;28;20020;-76
2021/01/02 03:24:22;;;;;;;12.75;6.38;;;0.60;99.90;;;;;;5070990;28;20463;-76
2021/01/02 03:26:48;;;;;;;11.73;6.55;;;0.60;99.90;;;;;;5074232;28;20119;-76
2021/01/02 03:29:13;;;;;;;11.90;6.05;;;0.60;99.90;;;;;;5066566;28;20465;-76
2021/01/02 03:31:40;;;;;;;12.20;6.78;;;0.70;99.90;;;;;;5069380;28;20024;-76
2021/01/02 03:34:06;;;;;;;12.07;6.68;;;0.70;99.90;;;;;;5070526;28;20029;-76
2021/01/02 03:36:32;;;;;;;10.63;5.97;;;0.70;99.90;;;;;;5067016;28;20104;-76
2021/01/02 03:38:59;;;;;;;13.35;7.55;;;0.70;99.90;;;;;;5069114;28;20017;-77
2021/01/02 03:41:27;;;;;;;11.85;6.53;;;0.70;99.90;;;;;;5057912;28;20033;-76
2021/01/02 03:43:52;;;;;;;10.98;6.38;;;0.70;99.90;;;;;;5067847;28;20036;-76
2021/01/02 03:46:19;;;;;;;13.43;6.95;;;0.70;99.90;;;;;;5070520;28;20027;-77
2021/01/02 03:48:45;;;;;;;13.35;6.97;;;0.70;99.90;;;;;;5067355;28;20052;-76
2021/01/02 03:51:11;;;;;;;12.35;6.88;;;0.70;99.90;;;;;;5032884;28;20044;-76
2021/01/02 03:53:37;;;;;;;11.75;6.63;;;0.70;99.90;;;;;;5051572;28;20029;-76
2021/01/02 03:56:03;;;;;;;11.38;6.63;;;0.70;99.90;;;;;;5046509;28;20031;-77
2021/01/02 03:58:28;;;;;;;13.43;6.88;;;0.70;99.90;;;;;;5078168;28;20032;-76
2021/01/02 04:00:54;;;;;;;11.30;6.60;;;0.70;99.90;;;;;;5067078;28;20025;-76
2021/01/02 04:03:20;;;;;;;12.02;6.63;;;0.60;99.90;;;;;;5070244;28;20479;-76
2021/01/02 04:05:46;;;;;;;15.32;6.78;;;0.60;99.90;;;;;;5066626;28;20070;-77
2021/01/02 04:08:12;;;;;;;16.17;7.53;;;0.60;99.90;;;;;;5069419;28;20029;-76
2021/01/02 04:10:39;;;;;;;12.23;7.00;;;0.60;99.90;;;;;;5070121;28;20067;-76
2021/01/02 04:13:05;;;;;;;12.05;6.47;;;0.60;99.90;;;;;;5068779;28;20039;-76
2021/01/02 04:15:30;;;;;;;11.52;6.55;;;0.60;99.90;;;;;;5051323;28;20055;-76
2021/01/02 04:17:56;;;;;;;13.43;6.85;;;0.60;99.90;;;;;;5070862;28;20059;-76
2021/01/02 04:20:24;;;;;;;12.15;6.55;;;0.70;99.90;;;;;;5069839;28;20550;-77
2021/01/02 04:22:50;;;;;;;13.10;6.82;;;0.60;99.90;;;;;;5070171;28;20039;-77
2021/01/02 04:25:15;;;;;;;12.70;6.15;;;0.60;99.90;;;;;;5067259;28;20406;-77
2021/01/02 04:27:41;;;;;;;13.63;6.97;;;0.70;99.90;;;;;;5074550;28;20028;-76
2021/01/02 04:30:07;;;;;;;12.18;6.65;;;0.70;99.90;;;;;;5063120;28;20660;-76
2021/01/02 04:32:33;;;;;;;12.45;6.43;;;0.70;99.90;;;;;;5053977;28;20031;-76
2021/01/02 04:34:58;;;;;;;13.63;6.97;;;0.70;99.90;;;;;;5065199;28;20115;-77
2021/01/02 04:37:31;;;;;;;11.00;6.03;;;0.70;99.90;;;;;;5066780;28;20037;-77
2021/01/02 04:39:57;;;;;;;12.77;6.53;;;0.70;99.90;;;;;;5072747;28;20481;-76
2021/01/02 04:42:24;;;;;;;14.40;6.70;;;0.70;99.90;;;;;;5060076;28;20025;-77
2021/01/02 04:44:51;;;;;;;15.50;7.50;;;0.70;99.90;;;;;;5058999;28;20104;-77
2021/01/02 04:47:19;;;;;;;9.10;5.78;;;0.60;99.90;;;;;;5063828;28;20056;-76
2021/01/02 04:49:46;;;;;;;13.57;6.97;;;0.60;99.90;;;;;;5074764;28;20158;-76
2021/01/02 04:52:16;;;;;;;11.63;6.50;;;0.70;99.90;;;;;;5058177;28;20025;-77
2021/01/02 04:54:48;;;;;;;12.48;6.68;;;0.70;99.90;;;;;;5053058;28;20504;-76
2021/01/02 04:57:14;;;;;;;13.98;6.13;;;0.70;99.90;;;;;;5067222;28;20020;-76
2021/01/02 04:59:40;;;;;;;12.95;6.53;;;0.70;99.90;;;;;;5070095;28;20081;-77
2021/01/02 05:02:12;;;;;;;10.00;5.70;;;0.70;99.90;;;;;;5072269;28;20089;-76
2021/01/02 05:04:38;;;;;;;11.02;5.93;;;0.70;99.90;;;;;;5055265;28;20039;-77
2021/01/02 05:07:03;;;;;;;11.93;6.38;;;0.70;99.90;;;;;;5067223;28;20403;-76
2021/01/02 05:09:30;;;;;;;10.82;6.00;;;0.70;99.90;;;;;;5070662;28;20043;-76
2021/01/02 05:11:55;;;;;;;14.13;6.63;;;0.60;99.90;;;;;;5072026;28;20496;-77
2021/01/02 05:14:21;;;;;;;11.77;6.85;;;0.60;99.90;;;;;;5072278;28;20029;-76
2021/01/02 05:16:47;;;;;;;14.27;6.88;;;0.60;99.90;;;;;;5069589;28;20478;-77
2021/01/02 05:19:14;;;;;;;11.68;6.88;;;0.60;99.90;;;;;;5055203;28;20032;-76
2021/01/02 05:21:45;;;;;;;10.70;6.47;;;0.60;99.90;;;;;;5073381;28;20037;-76
2021/01/02 05:24:15;;;;;;;10.48;5.80;;;0.60;99.90;;;;;;5071782;28;20082;-77
2021/01/02 05:26:55;;;;;;;12.73;6.00;;;0.60;99.90;;;;;;5071168;28;20107;-77
2021/01/02 05:29:25;;;;;;;12.48;6.28;;;0.50;99.90;;;;;;5071608;28;20064;-77
2021/01/02 05:31:58;;;;;;;10.93;6.30;;;0.50;99.90;;;;;;5057282;28;20017;-77
2021/01/02 05:34:26;;;;;;;12.02;5.53;;;0.50;99.90;;;;;;5072450;28;20031;-77
2021/01/02 05:37:06;;;;;;;13.27;6.32;;;0.50;99.90;;;;;;5063332;28;20112;-77
2021/01/02 05:39:35;;;;;;;12.63;6.13;;;0.50;99.90;;;;;;5081035;28;20537;-76
2021/01/02 05:42:00;;;;;;;11.15;6.32;;;0.50;99.90;;;;;;5069429;28;20025;-77
2021/01/02 05:44:32;;;;;;;10.35;6.05;;;0.50;99.90;;;;;;5031416;28;20159;-77
2021/01/02 05:46:58;;;;;;;13.40;6.80;;;0.50;99.90;;;;;;5053407;28;20056;-77
2021/01/02 05:49:29;;;;;;;11.27;6.18;;;0.50;99.90;;;;;;5075115;28;20059;-76
2021/01/02 05:52:00;;;;;;;11.98;6.55;;;0.40;99.90;;;;;;5059205;28;20021;-77
2021/01/02 05:54:28;;;;;;;12.73;6.63;;;0.40;99.90;;;;;;5052932;28;20033;-77
2021/01/02 05:57:00;;;;;;;11.50;5.93;;;0.40;99.90;;;;;;5068026;28;20017;-77
2021/01/02 05:59:30;;;;;;;13.40;6.63;;;0.40;99.90;;;;;;5074281;28;20033;-77
2021/01/02 06:01:56;;;;;;;12.60;6.57;;;0.40;99.90;;;;;;5072310;28;20036;-77
2021/01/02 06:04:22;;;;;;;11.45;6.15;;;0.30;99.90;;;;;;5071999;28;20060;-77
2021/01/02 06:07:07;;;;;;;12.45;6.70;;;0.30;99.90;;;;;;5043865;28;20055;-77
2021/01/02 06:09:35;;;;;;;11.80;6.25;;;0.30;99.90;;;;;;5070854;28;20128;-76
2021/01/02 06:12:04;;;;;;;11.45;5.95;;;0.30;99.90;;;;;;5072653;28;20482;-77
2021/01/02 06:14:33;;;;;;;12.18;6.47;;;0.20;99.90;;;;;;5059978;28;20060;-76
2021/01/02 06:17:04;;;;;;;11.13;6.55;;;0.20;99.90;;;;;;5056980;28;20360;-76
2021/01/02 06:19:31;;;;;;;13.48;6.40;;;0.20;99.90;;;;;;5073223;28;20040;-77
2021/01/02 06:21:57;;;;;;;11.95;6.47;;;0.10;99.90;;;;;;5070750;28;20024;-77
2021/01/02 06:24:23;;;;;;;11.88;6.35;;;0.10;99.90;;;;;;5072176;28;20032;-76
2021/01/02 06:26:51;;;;;;;11.10;6.38;;;0.10;99.90;;;;;;5047090;28;20133;-77
2021/01/02 06:29:17;;;;;;;12.43;6.40;;;0.10;99.90;;;;;;5050539;28;20032;-77
2021/01/02 06:31:43;;;;;;;11.45;5.68;;;0.10;99.90;;;;;;5050852;28;20033;-77
2021/01/02 06:34:10;;;;;;;11.57;5.88;;;0.10;99.90;;;;;;5017427;28;20507;-77
2021/01/02 06:36:39;;;;;;;11.27;5.32;;;0.10;99.90;;;;;;5071833;28;20027;-76
2021/01/02 06:39:20;;;;;;;11.13;6.13;;;0.10;99.90;;;;;;5067244;28;20036;-77
2021/01/02 06:41:47;;;;;;;9.43;5.45;;;0.10;99.90;;;;;;5068777;28;20036;-77
2021/01/02 06:44:41;;;;;;;11.05;5.85;;;0.10;99.90;;;;;;5068530;28;20044;-77
2021/01/02 06:47:17;;;;;;;11.93;5.88;;;0.00;99.90;;;;;;5069205;28;20453;-77
2021/01/02 06:49:43;;;;;;;11.38;5.90;;;0.00;99.90;;;;;;5079566;28;20422;-77
2021/01/02 06:52:10;;;;;;;11.30;5.68;;;0.00;99.90;;;;;;5075659;28;20017;-77
2021/01/02 06:54:39;;;;;;;10.50;5.85;;;0.00;99.90;;;;;;5069723;28;20144;-77
2021/01/02 06:57:06;;;;;;;11.90;5.80;;;0.10;99.90;;;;;;5069785;28;20040;-77
2021/01/02 06:59:32;;;;;;;10.82;5.63;;;0.10;99.90;;;;;;5065554;28;20031;-77
2021/01/02 07:01:58;;;;;;;9.35;5.55;;;0.00;99.90;;;;;;5053262;28;20028;-76
2021/01/02 07:04:44;;;;;;;10.55;6.15;;;0.10;99.90;;;;;;5070728;28;20025;-77
2021/01/02 07:07:09;;;;;;;11.07;6.05;;;0.00;99.90;;;;;;5060565;28;20037;-76
2021/01/02 07:09:35;;;;;;;10.77;5.70;;;0.00;99.90;;;;;;5069190;28;20394;-77
2021/01/02 07:12:09;;;;;;;10.23;5.47;;;0.00;99.90;;;;;;5071250;28;20052;-77
2021/01/02 07:14:35;;;;;;;12.07;6.17;;;0.00;99.90;;;;;;5069832;28;20032;-77
2021/01/02 07:17:11;;;;;;;11.57;6.22;;;0.00;99.90;;;;;;5068026;28;20035;-77
2021/01/02 07:19:38;;;;;;;12.40;6.22;;;0.00;99.90;;;;;;5068426;28;20052;-77
2021/01/02 07:22:10;;;;;;;10.60;5.97;;;0.00;99.90;;;;;;5055736;28;20052;-76
2021/01/02 07:24:48;;;;;;;9.20;5.57;;;0.00;99.90;;;;;;5050642;28;20025;-77
2021/01/02 07:27:15;;;;;;;10.23;5.60;;;0.00;99.90;;;;;;5068819;28;20480;-77
2021/01/02 07:29:44;;;;;;;9.18;5.65;;;0.00;99.90;;;;;;5071983;28;20037;-76
2021/01/02 07:32:30;;;;;;;9.68;5.78;;;-0.10;99.90;;;;;;5070679;28;20029;-76
2021/01/02 07:35:02;;;;;;;12.38;5.63;;;-0.10;99.90;;;;;;5068319;28;20032;-76
2021/01/02 07:37:30;;;;;;;10.63;5.43;;;-0.10;99.90;;;;;;5069586;28;20564;-76
2021/01/02 07:39:59;;;;;;;12.65;5.95;;;-0.10;99.90;;;;;;5079978;28;20052;-76
2021/01/02 07:42:33;;;;;;;9.77;5.18;;;-0.10;99.90;;;;;;5062326;28;20534;-76
2021/01/02 07:45:05;;;;;;;10.20;5.88;;;-0.10;99.90;;;;;;5050855;28;20487;-76
2021/01/02 07:47:31;;;;;;;11.60;6.28;;;-0.10;99.90;;;;;;5057724;28;20036;-76
2021/01/02 07:50:02;;;;;;;11.50;6.18;;;-0.10;99.90;;;;;;5070913;28;20131;-76
2021/01/02 07:52:29;;;;;;;10.70;6.07;;;-0.10;99.90;;;;;;5052059;28;20024;-76
2021/01/02 07:54:55;;;;;;;13.57;6.25;;;-0.10;99.90;;;;;;5053617;28;20012;-76
2021/01/02 07:57:25;;;;;;;9.35;5.38;;;-0.10;99.90;;;;;;5068524;28;20032;-76
2021/01/02 07:59:52;;;;;;;11.18;5.95;;;0.00;99.90;;;;;;5063120;28;20032;-76
2021/01/02 08:02:26;;;;;;;12.43;5.85;;;0.00;99.90;;;;;;5069949;28;20025;-76
2021/01/02 08:04:52;;;;;;;10.85;5.47;;;0.00;99.90;;;;;;5050089;28;20032;-76
2021/01/02 08:07:19;;;;;;;10.98;5.78;;;0.10;99.90;;;;;;5061675;28;20074;-77
2021/01/02 08:09:46;;;;;;;10.70;6.00;;;0.10;99.90;;;;;;5053220;28;20569;-76
2021/01/02 08:12:13;;;;;;;11.32;5.97;;;0.10;99.90;;;;;;5056011;28;20028;-77
2021/01/02 08:14:48;;;;;;;9.82;5.50;;;0.10;99.90;;;;;;5063907;28;20414;-76
2021/01/02 08:17:19;;;;;;;12.25;5.95;;;0.20;99.90;;;;;;5063122;28;20029;-76
2021/01/02 08:19:47;;;;;;;11.90;6.45;;;0.20;99.90;;;;;;5064654;28;20040;-76
2021/01/02 08:22:36;;;;;;;12.68;6.35;;;0.20;99.90;;;;;;5060284;28;20020;-76
2021/01/02 08:25:09;;;;;;;10.25;5.80;;;0.30;99.90;;;;;;5066404;28;20057;-77
2021/01/02 08:27:35;;;;;;;11.50;5.65;;;0.30;99.90;;;;;;5060421;28;20152;-76
2021/01/02 08:30:06;;;;;;;9.25;5.80;;;0.40;99.90;;;;;;5064675;28;20048;-77
2021/01/02 08:32:42;;;;;;;13.15;6.60;;;0.40;99.90;;;;;;5066650;28;20677;-76
2021/01/02 08:35:20;;;;;;;12.73;6.18;;;0.40;99.90;;;;;;5062121;28;20491;-77
2021/01/02 08:37:47;;;;;;;13.48;6.00;;;0.40;99.90;;;;;;5072496;28;20024;-77
2021/01/02 08:40:15;;;;;;;11.32;5.70;;;0.50;99.90;;;;;;5071566;28;20029;-76
2021/01/02 08:42:43;;;;;;;11.23;6.03;;;0.50;99.90;;;;;;5069005;28;20032;-76
2021/01/02 08:45:10;;;;;;;10.27;5.55;;;0.60;99.90;;;;;;5070191;28;20391;-77
2021/01/02 08:47:37;;;;;;;13.50;6.63;;;0.60;99.90;;;;;;5063952;28;20094;-76
2021/01/02 08:50:09;;;;;;;13.65;6.38;;;0.60;99.90;;;;;;5055226;28;20387;-76
2021/01/02 08:52:35;;;;;;;13.50;6.47;;;0.70;99.90;;;;;;5066597;28;20119;-76
2021/01/02 08:55:08;;;;;;;11.35;6.18;;;0.70;99.90;;;;;;5066047;28;20099;-77
2021/01/02 08:57:36;;;;;;;13.43;6.60;;;0.70;99.90;;;;;;5068193;28;20024;-77
2021/01/02 09:00:10;;;;;;;10.35;5.82;;;0.70;99.90;;;;;;5069338;28;20039;-77
2021/01/02 09:02:41;;;;;;;14.90;7.10;;;0.80;99.90;;;;;;5070335;28;20039;-77
2021/01/02 09:05:17;;;;;;;11.50;6.30;;;0.90;99.90;;;;;;5065394;28;20033;-76
2021/01/02 09:08:20;;;;;;;14.27;6.50;;;0.90;99.90;;;;;;5064379;28;20165;-76
2021/01/02 09:10:47;;;;;;;15.85;8.05;;;1.00;99.90;;;;;;5043988;28;20445;-76
2021/01/02 09:13:16;;;;;;;15.18;8.32;;;1.10;99.90;;;;;;5053701;28;20066;-76
2021/01/02 09:15:42;;;;;;;15.02;7.90;;;1.20;99.90;;;;;;5061881;28;20029;-76
2021/01/02 09:18:08;;;;;;;14.77;7.88;;;1.10;99.90;;;;;;5091836;28;20024;-76
2021/01/02 09:20:34;;;;;;;16.45;7.70;;;1.10;99.90;;;;;;5059327;28;20033;-76
2021/01/02 09:22:59;;;;;;;13.23;7.55;;;1.00;99.90;;;;;;5053461;28;20037;-76
2021/01/02 09:25:32;;;;;;;17.13;9.70;;;1.00;99.90;;;;;;5055213;28;20242;-76
2021/01/02 09:28:14;;;;;;;15.02;8.35;;;1.00;99.90;;;;;;5073901;28;20037;-76
2021/01/02 09:30:41;;;;;;;14.18;7.28;;;1.10;99.90;;;;;;5082110;28;20025;-76
2021/01/02 09:33:07;;;;;;;13.68;7.38;;;1.10;99.90;;;;;;5051603;28;20430;-76
2021/01/02 09:35:34;;;;;;;18.15;8.30;;;1.00;99.90;;;;;;5058655;28;20031;-76
2021/01/02 09:38:02;;;;;;;13.85;7.20;;;1.10;99.90;;;;;;5054904;28;20032;-76
2021/01/02 09:40:27;;;;;;;13.80;7.70;;;1.10;99.90;;;;;;5059759;28;20036;-76
2021/01/02 09:42:53;;;;;;;12.13;6.72;;;1.10;99.90;;;;;;5062111;28;20028;-76
2021/01/02 09:45:19;;;;;;;15.73;7.22;;;1.20;99.90;;;;;;5066114;28;20399;-76
2021/01/02 09:47:45;;;;;;;14.20;7.00;;;1.20;99.90;;;;;;5071595;28;20029;-77
2021/01/02 09:50:11;;;;;;;11.95;6.13;;;1.20;99.90;;;;;;5058511;28;20032;-76
2021/01/02 09:52:37;;;;;;;13.15;6.72;;;1.30;99.90;;;;;;5051235;28;20634;-76
2021/01/02 09:55:04;;;;;;;16.75;7.35;;;1.30;99.90;;;;;;5069676;28;20086;-76
2021/01/02 09:57:29;;;;;;;12.73;6.80;;;1.40;99.90;;;;;;5071471;28;20025;-76
2021/01/02 09:59:55;;;;;;;11.07;5.72;;;1.40;99.90;;;;;;5060131;28;20501;-76
2021/01/02 10:02:21;;;;;;;12.35;6.53;;;1.40;99.90;;;;;;5071167;28;20039;-76
2021/01/02 10:04:49;;;;;;;12.38;6.28;;;1.50;99.90;;;;;;5061759;28;20045;-76
2021/01/02 10:07:16;;;;;;;11.30;6.22;;;1.60;99.90;;;;;;5072456;28;20134;-77
2021/01/02 10:09:45;;;;;;;12.18;6.10;;;1.60;99.90;;;;;;5075915;28;20033;-76
2021/01/02 10:12:12;;;;;;;10.80;5.95;;;1.70;99.90;;;;;;5072786;28;20048;-76
2021/01/02 10:14:38;;;;;;;12.82;7.05;;;1.70;99.90;;;;;;5069676;28;20040;-76
2021/01/02 10:17:05;;;;;;;12.30;6.68;;;1.80;99.90;;;;;;5076562;28;20391;-76
2021/01/02 10:19:32;;;;;;;13.50;7.32;;;1.80;99.90;;;;;;5065971;28;20085;-76
2021/01/02 10:22:04;;;;;;;11.70;6.70;;;1.80;99.90;;;;;;5072672;28;20060;-76
2021/01/02 10:24:30;;;;;;;14.73;7.10;;;1.80;99.90;;;;;;5063449;28;20033;-76
2021/01/02 10:26:56;;;;;;;28.75;12.45;;;1.90;99.90;;;;;;5069404;28;20028;-76
2021/01/02 10:29:22;;;;;;;14.40;7.75;;;1.90;99.90;;;;;;5062683;28;20116;-76
2021/01/02 10:31:47;;;;;;;14.82;6.57;;;1.90;99.90;;;;;;5065225;28;20113;-76
2021/01/02 10:34:14;;;;;;;13.07;6.57;;;2.00;99.90;;;;;;5055873;28;20082;-76
2021/01/02 10:36:43;;;;;;;15.15;7.38;;;2.00;99.90;;;;;;5068370;28;20075;-75
2021/01/02 10:39:09;;;;;;;15.27;7.22;;;2.00;99.90;;;;;;5063152;28;20036;-76
2021/01/02 10:41:34;;;;;;;16.60;8.07;;;2.10;99.90;;;;;;5057868;28;20033;-76
2021/01/02 10:44:00;;;;;;;19.77;8.48;;;2.10;99.90;;;;;;5049015;28;20077;-75
2021/01/02 10:46:26;;;;;;;14.95;7.60;;;2.00;99.90;;;;;;5037656;28;20056;-75
2021/01/02 10:48:51;;;;;;;16.67;7.90;;;2.00;99.90;;;;;;5066608;28;20083;-78
2021/01/02 10:51:19;;;;;;;14.55;7.22;;;2.00;99.90;;;;;;5066245;28;20046;-76
2021/01/02 10:53:45;;;;;;;15.02;7.53;;;1.90;99.90;;;;;;5066175;28;20025;-77
2021/01/02 10:56:12;;;;;;;14.40;7.60;;;1.90;99.90;;;;;;5060519;28;20033;-76
2021/01/02 10:58:38;;;;;;;13.55;7.38;;;1.90;99.90;;;;;;5069091;28;20033;-78
2021/01/02 11:01:05;;;;;;;19.80;8.40;;;1.80;99.90;;;;;;5063923;28;20032;-77
2021/01/02 11:03:31;;;;;;;13.05;7.35;;;1.80;99.90;;;;;;5056136;28;20043;-76
2021/01/02 11:06:09;;;;;;;13.55;7.18;;;1.80;99.90;;;;;;5060372;28;20082;-77
2021/01/02 11:08:36;;;;;;;16.35;8.68;;;1.80;99.90;;;;;;5065911;28;20036;-76
2021/01/02 11:11:03;;;;;;;13.85;7.75;;;1.70;99.90;;;;;;5053360;28;20077;-76
2021/01/02 11:13:29;;;;;;;14.73;7.55;;;1.60;99.90;;;;;;5057476;28;20051;-76
2021/01/02 11:15:55;;;;;;;13.23;7.20;;;1.70;99.90;;;;;;5051412;28;20475;-76
2021/01/02 11:18:21;;;;;;;13.27;7.53;;;1.70;99.90;;;;;;5060972;28;20052;-75
2021/01/02 11:20:47;;;;;;;14.80;7.93;;;1.70;99.90;;;;;;5055080;28;20072;-75
2021/01/02 11:23:19;;;;;;;12.85;7.35;;;1.70;99.90;;;;;;5061220;28;20060;-76
2021/01/02 11:25:45;;;;;;;13.02;7.25;;;1.70;99.90;;;;;;5055266;28;20156;-76
2021/01/02 11:28:11;;;;;;;13.65;7.28;;;1.70;99.90;;;;;;5066466;28;20020;-76
2021/01/02 11:30:37;;;;;;;13.88;6.60;;;1.80;99.90;;;;;;5055020;28;20044;-75
2021/01/02 11:33:04;;;;;;;13.05;6.43;;;1.80;99.90;;;;;;5046716;28;20029;-76
2021/01/02 11:35:30;;;;;;;12.32;5.82;;;1.80;99.90;;;;;;5062312;28;20071;-76
2021/01/02 11:37:56;;;;;;;9.82;5.57;;;1.90;99.90;;;;;;5062498;28;20059;-76
2021/01/02 11:40:22;;;;;;;10.63;5.75;;;2.00;99.90;;;;;;5053367;28;20439;-75
2021/01/02 11:42:47;;;;;;;11.90;6.25;;;2.00;99.90;;;;;;5046170;28;20037;-75
2021/01/02 11:45:17;;;;;;;8.85;4.82;;;2.00;99.90;;;;;;5049213;28;20039;-75
2021/01/02 11:47:42;;;;;;;12.65;5.93;;;2.00;99.90;;;;;;5072726;28;20024;-76
2021/01/02 11:50:09;;;;;;;9.05;5.15;;;2.00;99.90;;;;;;5062334;28;20094;-76
2021/01/02 11:52:34;;;;;;;8.88;5.65;;;2.10;99.90;;;;;;5046339;28;20025;-75
2021/01/02 11:55:01;;;;;;;14.38;6.00;;;2.10;99.90;;;;;;5064979;28;20717;-75
2021/01/02 11:57:26;;;;;;;11.27;5.47;;;2.00;99.90;;;;;;5067104;28;20039;-75
2021/01/02 11:59:52;;;;;;;10.40;6.10;;;2.00;99.90;;;;;;5074692;28;20435;-75
2021/01/02 12:02:18;;;;;;;10.05;5.72;;;2.00;99.90;;;;;;5069996;28;20115;-75
2021/01/02 12:04:45;;;;;;;9.55;5.15;;;2.00;99.90;;;;;;5069462;28;20024;-75
2021/01/02 12:07:12;;;;;;;10.40;5.55;;;2.10;99.90;;;;;;5050755;28;20482;-75
2021/01/02 12:09:38;;;;;;;11.73;5.72;;;2.00;99.90;;;;;;5072607;28;20025;-75
2021/01/02 12:12:05;;;;;;;10.40;5.55;;;2.00;99.90;;;;;;5051340;28;20379;-75
2021/01/02 12:14:33;;;;;;;12.60;5.70;;;2.10;99.90;;;;;;5072889;28;20063;-75
2021/01/02 12:17:02;;;;;;;10.93;6.00;;;2.10;99.90;;;;;;5068497;28;20021;-75
2021/01/02 12:19:30;;;;;;;9.00;5.50;;;2.10;99.90;;;;;;5049818;28;20035;-75
2021/01/02 12:21:58;;;;;;;12.05;6.50;;;2.10;99.90;;;;;;5048854;28;20047;-75
2021/01/02 12:24:25;;;;;;;9.98;5.05;;;2.10;99.90;;;;;;5051681;28;20383;-75
2021/01/02 12:26:53;;;;;;;7.28;4.68;;;2.10;99.90;;;;;;5062666;28;20032;-76
2021/01/02 12:29:21;;;;;;;7.90;4.45;;;2.00;99.90;;;;;;5068838;28;20029;-75
2021/01/02 12:31:51;;;;;;;9.27;4.63;;;2.10;99.90;;;;;;5056998;28;20403;-75
2021/01/02 12:34:18;;;;;;;7.03;3.88;;;2.10;99.90;;;;;;5032009;28;20037;-75
2021/01/02 12:36:44;;;;;;;6.95;3.63;;;2.20;99.90;;;;;;5068137;28;20063;-75
2021/01/02 12:39:12;;;;;;;8.65;4.38;;;2.20;99.90;;;;;;5063670;28;20052;-75
2021/01/02 12:41:38;;;;;;;9.93;5.60;;;2.20;99.90;;;;;;5056695;28;20047;-77
2021/01/02 12:44:04;;;;;;;8.00;4.00;;;2.30;99.90;;;;;;5059154;28;20036;-79
2021/01/02 12:46:45;;;;;;;10.30;4.47;;;2.20;99.90;;;;;;5061268;28;20024;-78
2021/01/02 12:49:13;;;;;;;8.57;4.82;;;2.20;99.90;;;;;;5066851;28;20025;-77
2021/01/02 12:51:38;;;;;;;12.57;6.65;;;2.20;99.90;;;;;;5070101;28;20125;-78
2021/01/02 12:54:05;;;;;;;9.63;5.40;;;2.30;99.90;;;;;;5045554;28;20556;-75
2021/01/02 12:56:31;;;;;;;8.93;5.55;;;2.30;99.90;;;;;;5063043;28;20037;-75
2021/01/02 12:58:56;;;;;;;10.63;5.60;;;2.40;99.90;;;;;;5069477;28;20064;-76
2021/01/02 13:01:22;;;;;;;13.85;6.68;;;2.40;99.90;;;;;;5031405;28;20140;-77